sensor_id;sensor_type;location;lat;lon;timestamp;P1;durP1;ratioP1;P2;durP2;ratioP2
2061;SDS011;11070;51.336;12.340;2024-03-07T00:02:12;60.47;;;28.07;;
2061;SDS011;11070;51.336;12.340;2024-03-07T00:04:37;51.13;;;27.35;;
2061;SDS011;11070;51.336;12.340;2024-03-07T00:07:03;52.00;;;27.50;;
2061;SDS011;11070;51.336;12.340;2024-03-07T00:09:32;54.88;;;26.80;;
2061;SDS011;11070;51.336;12.340;2024-03-07T00:11:59;48.85;;;27.70;;
2061;SDS011;11070;51.336;12.340;2024-03-07T00:14:25;49.33;;;27.35;;
2061;SDS011;11070;51.336;12.340;2024-03-07T00:16:55;54.60;;;28.45;;
2061;SDS011;11070;51.336;12.340;2024-03-07T00:19:21;58.67;;;29.73;;
2061;SDS011;11070;51.336;12.340;2024-03-07T00:21:50;60.35;;;29.20;;
2061;SDS011;11070;51.336;12.340;2024-03-07T00:24:17;54.17;;;29.70;;
2061;SDS011;11070;51.336;12.340;2024-03-07T00:26:42;56.40;;;28.37;;
2061;SDS011;11070;51.336;12.340;2024-03-07T00:29:08;55.20;;;28.10;;
2061;SDS011;11070;51.336;12.340;2024-03-07T00:31:33;51.57;;;27.47;;
2061;SDS011;11070;51.336;12.340;2024-03-07T00:33:59;50.30;;;28.00;;
2061;SDS011;11070;51.336;12.340;2024-03-07T00:36:25;52.43;;;27.83;;
2061;SDS011;11070;51.336;12.340;2024-03-07T00:38:51;55.40;;;29.30;;
2061;SDS011;11070;51.336;12.340;2024-03-07T00:41:17;57.65;;;29.33;;
2061;SDS011;11070;51.336;12.340;2024-03-07T00:43:44;58.72;;;29.42;;
2061;SDS011;11070;51.336;12.340;2024-03-07T00:46:10;59.60;;;30.43;;
2061;SDS011;11070;51.336;12.340;2024-03-07T00:48:36;59.73;;;30.27;;
2061;SDS011;11070;51.336;12.340;2024-03-07T00:51:03;60.47;;;31.55;;
2061;SDS011;11070;51.336;12.340;2024-03-07T00:53:29;60.92;;;31.10;;
2061;SDS011;11070;51.336;12.340;2024-03-07T00:55:55;59.45;;;31.13;;
2061;SDS011;11070;51.336;12.340;2024-03-07T00:58:21;64.05;;;32.40;;
2061;SDS011;11070;51.336;12.340;2024-03-07T01:00:47;58.00;;;32.13;;
2061;SDS011;11070;51.336;12.340;2024-03-07T01:03:13;67.23;;;33.10;;
2061;SDS011;11070;51.336;12.340;2024-03-07T01:05:39;71.40;;;33.73;;
2061;SDS011;11070;51.336;12.340;2024-03-07T01:08:05;74.90;;;34.40;;
2061;SDS011;11070;51.336;12.340;2024-03-07T01:10:31;62.15;;;32.67;;
2061;SDS011;11070;51.336;12.340;2024-03-07T01:12:57;74.20;;;34.50;;
2061;SDS011;11070;51.336;12.340;2024-03-07T01:15:26;71.47;;;32.95;;
2061;SDS011;11070;51.336;12.340;2024-03-07T01:17:55;67.38;;;33.47;;
2061;SDS011;11070;51.336;12.340;2024-03-07T01:20:21;72.65;;;33.90;;
2061;SDS011;11070;51.336;12.340;2024-03-07T01:22:50;66.97;;;34.90;;
2061;SDS011;11070;51.336;12.340;2024-03-07T01:25:17;72.43;;;33.83;;
2061;SDS011;11070;51.336;12.340;2024-03-07T01:27:43;70.22;;;34.45;;
2061;SDS011;11070;51.336;12.340;2024-03-07T01:30:09;76.03;;;36.37;;
2061;SDS011;11070;51.336;12.340;2024-03-07T01:32:36;71.38;;;35.53;;
2061;SDS011;11070;51.336;12.340;2024-03-07T01:35:02;80.10;;;36.40;;
2061;SDS011;11070;51.336;12.340;2024-03-07T01:37:28;80.93;;;36.40;;
2061;SDS011;11070;51.336;12.340;2024-03-07T01:39:54;75.10;;;36.70;;
2061;SDS011;11070;51.336;12.340;2024-03-07T01:42:20;82.90;;;37.10;;
2061;SDS011;11070;51.336;12.340;2024-03-07T01:44:45;82.60;;;38.60;;
2061;SDS011;11070;51.336;12.340;2024-03-07T01:47:11;80.80;;;38.00;;
2061;SDS011;11070;51.336;12.340;2024-03-07T01:49:38;80.70;;;37.30;;
2061;SDS011;11070;51.336;12.340;2024-03-07T01:52:04;79.15;;;36.97;;
2061;SDS011;11070;51.336;12.340;2024-03-07T01:54:30;76.50;;;37.80;;
2061;SDS011;11070;51.336;12.340;2024-03-07T01:56:56;77.95;;;39.00;;
2061;SDS011;11070;51.336;12.340;2024-03-07T01:59:23;79.35;;;38.78;;
2061;SDS011;11070;51.336;12.340;2024-03-07T02:01:50;75.80;;;38.03;;
2061;SDS011;11070;51.336;12.340;2024-03-07T02:04:16;93.97;;;41.35;;
2061;SDS011;11070;51.336;12.340;2024-03-07T02:06:41;80.53;;;37.77;;
2061;SDS011;11070;51.336;12.340;2024-03-07T02:09:07;89.43;;;41.60;;
2061;SDS011;11070;51.336;12.340;2024-03-07T02:11:33;81.80;;;39.40;;
2061;SDS011;11070;51.336;12.340;2024-03-07T02:13:59;88.73;;;40.23;;
2061;SDS011;11070;51.336;12.340;2024-03-07T02:16:25;87.17;;;39.27;;
2061;SDS011;11070;51.336;12.340;2024-03-07T02:18:51;79.90;;;38.60;;
2061;SDS011;11070;51.336;12.340;2024-03-07T02:21:16;80.07;;;39.43;;
2061;SDS011;11070;51.336;12.340;2024-03-07T02:23:42;82.23;;;40.00;;
2061;SDS011;11070;51.336;12.340;2024-03-07T02:26:08;85.50;;;39.13;;
2061;SDS011;11070;51.336;12.340;2024-03-07T02:28:34;76.93;;;38.27;;
2061;SDS011;11070;51.336;12.340;2024-03-07T02:31:00;81.47;;;38.83;;
2061;SDS011;11070;51.336;12.340;2024-03-07T02:33:26;77.07;;;37.05;;
2061;SDS011;11070;51.336;12.340;2024-03-07T02:35:52;80.77;;;38.77;;
2061;SDS011;11070;51.336;12.340;2024-03-07T02:38:18;80.17;;;38.77;;
2061;SDS011;11070;51.336;12.340;2024-03-07T02:40:44;82.55;;;37.97;;
2061;SDS011;11070;51.336;12.340;2024-03-07T02:43:11;75.88;;;38.47;;
2061;SDS011;11070;51.336;12.340;2024-03-07T02:45:37;79.00;;;37.17;;
2061;SDS011;11070;51.336;12.340;2024-03-07T02:48:03;78.17;;;37.37;;
2061;SDS011;11070;51.336;12.340;2024-03-07T02:50:34;68.90;;;35.78;;
2061;SDS011;11070;51.336;12.340;2024-03-07T02:53:03;68.18;;;36.45;;
2061;SDS011;11070;51.336;12.340;2024-03-07T02:55:32;75.95;;;36.95;;
2061;SDS011;11070;51.336;12.340;2024-03-07T02:57:57;72.63;;;34.40;;
2061;SDS011;11070;51.336;12.340;2024-03-07T03:00:24;68.80;;;35.25;;
2061;SDS011;11070;51.336;12.340;2024-03-07T03:02:54;70.57;;;35.58;;
2061;SDS011;11070;51.336;12.340;2024-03-07T03:05:20;71.63;;;36.28;;
2061;SDS011;11070;51.336;12.340;2024-03-07T03:07:47;71.70;;;36.95;;
2061;SDS011;11070;51.336;12.340;2024-03-07T03:10:20;72.97;;;36.15;;
2061;SDS011;11070;51.336;12.340;2024-03-07T03:12:55;73.45;;;36.67;;
2061;SDS011;11070;51.336;12.340;2024-03-07T03:15:25;70.90;;;35.35;;
2061;SDS011;11070;51.336;12.340;2024-03-07T03:17:51;80.63;;;37.33;;
2061;SDS011;11070;51.336;12.340;2024-03-07T03:20:18;84.57;;;38.25;;
2061;SDS011;11070;51.336;12.340;2024-03-07T03:22:50;77.88;;;37.53;;
2061;SDS011;11070;51.336;12.340;2024-03-07T03:25:20;79.90;;;38.05;;
2061;SDS011;11070;51.336;12.340;2024-03-07T03:27:49;87.20;;;38.35;;
2061;SDS011;11070;51.336;12.340;2024-03-07T03:30:15;87.05;;;39.85;;
2061;SDS011;11070;51.336;12.340;2024-03-07T03:32:46;87.45;;;41.28;;
2061;SDS011;11070;51.336;12.340;2024-03-07T03:35:13;88.13;;;39.28;;
2061;SDS011;11070;51.336;12.340;2024-03-07T03:37:41;91.88;;;40.30;;
2061;SDS011;11070;51.336;12.340;2024-03-07T03:40:07;94.53;;;42.33;;
2061;SDS011;11070;51.336;12.340;2024-03-07T03:42:37;95.55;;;40.70;;
2061;SDS011;11070;51.336;12.340;2024-03-07T03:45:07;100.60;;;41.47;;
2061;SDS011;11070;51.336;12.340;2024-03-07T03:47:35;87.00;;;41.67;;
2061;SDS011;11070;51.336;12.340;2024-03-07T03:50:04;100.18;;;41.60;;
2061;SDS011;11070;51.336;12.340;2024-03-07T03:52:31;94.85;;;40.80;;
2061;SDS011;11070;51.336;12.340;2024-03-07T03:54:58;94.05;;;41.35;;
2061;SDS011;11070;51.336;12.340;2024-03-07T03:57:24;105.60;;;41.58;;
2061;SDS011;11070;51.336;12.340;2024-03-07T03:59:51;93.50;;;41.60;;
2061;SDS011;11070;51.336;12.340;2024-03-07T04:02:17;86.72;;;39.58;;
2061;SDS011;11070;51.336;12.340;2024-03-07T04:04:42;89.57;;;40.27;;
2061;SDS011;11070;51.336;12.340;2024-03-07T04:07:10;94.50;;;41.63;;
2061;SDS011;11070;51.336;12.340;2024-03-07T04:09:37;87.38;;;38.15;;
2061;SDS011;11070;51.336;12.340;2024-03-07T04:12:03;84.53;;;37.90;;
2061;SDS011;11070;51.336;12.340;2024-03-07T04:14:30;83.68;;;38.55;;
2061;SDS011;11070;51.336;12.340;2024-03-07T04:16:58;79.40;;;37.72;;
2061;SDS011;11070;51.336;12.340;2024-03-07T04:19:23;87.77;;;37.80;;
2061;SDS011;11070;51.336;12.340;2024-03-07T04:21:50;77.25;;;37.13;;
2061;SDS011;11070;51.336;12.340;2024-03-07T04:24:16;84.30;;;37.65;;
2061;SDS011;11070;51.336;12.340;2024-03-07T04:26:42;84.67;;;38.73;;
2061;SDS011;11070;51.336;12.340;2024-03-07T04:29:08;81.43;;;38.63;;
2061;SDS011;11070;51.336;12.340;2024-03-07T04:31:34;89.70;;;37.73;;
2061;SDS011;11070;51.336;12.340;2024-03-07T04:33:59;78.75;;;37.28;;
2061;SDS011;11070;51.336;12.340;2024-03-07T04:36:25;76.33;;;37.43;;
2061;SDS011;11070;51.336;12.340;2024-03-07T04:38:51;75.40;;;35.83;;
2061;SDS011;11070;51.336;12.340;2024-03-07T04:41:17;71.10;;;35.85;;
2061;SDS011;11070;51.336;12.340;2024-03-07T04:43:44;76.00;;;36.40;;
2061;SDS011;11070;51.336;12.340;2024-03-07T04:46:10;73.75;;;37.20;;
2061;SDS011;11070;51.336;12.340;2024-03-07T04:48:36;69.83;;;36.70;;
2061;SDS011;11070;51.336;12.340;2024-03-07T04:51:02;75.45;;;36.78;;
2061;SDS011;11070;51.336;12.340;2024-03-07T04:53:28;70.70;;;35.50;;
2061;SDS011;11070;51.336;12.340;2024-03-07T04:55:54;66.55;;;34.78;;
2061;SDS011;11070;51.336;12.340;2024-03-07T04:58:21;72.68;;;36.58;;
2061;SDS011;11070;51.336;12.340;2024-03-07T05:00:47;65.10;;;35.20;;
2061;SDS011;11070;51.336;12.340;2024-03-07T05:03:12;72.67;;;35.60;;
2061;SDS011;11070;51.336;12.340;2024-03-07T05:05:38;58.30;;;33.70;;
2061;SDS011;11070;51.336;12.340;2024-03-07T05:08:06;65.53;;;34.67;;
2061;SDS011;11070;51.336;12.340;2024-03-07T05:10:31;64.53;;;33.67;;
2061;SDS011;11070;51.336;12.340;2024-03-07T05:12:57;67.60;;;36.40;;
2061;SDS011;11070;51.336;12.340;2024-03-07T05:15:24;67.55;;;37.40;;
2061;SDS011;11070;51.336;12.340;2024-03-07T05:17:51;71.22;;;36.53;;
2061;SDS011;11070;51.336;12.340;2024-03-07T05:20:17;61.92;;;35.08;;
2061;SDS011;11070;51.336;12.340;2024-03-07T05:22:43;68.27;;;36.03;;
2061;SDS011;11070;51.336;12.340;2024-03-07T05:25:30;65.30;;;37.25;;
2061;SDS011;11070;51.336;12.340;2024-03-07T05:27:55;65.77;;;37.30;;
2061;SDS011;11070;51.336;12.340;2024-03-07T05:30:21;67.37;;;36.10;;
2061;SDS011;11070;51.336;12.340;2024-03-07T05:32:48;71.40;;;38.65;;
2061;SDS011;11070;51.336;12.340;2024-03-07T05:35:14;59.03;;;35.33;;
2061;SDS011;11070;51.336;12.340;2024-03-07T05:37:40;62.87;;;37.10;;
2061;SDS011;11070;51.336;12.340;2024-03-07T05:40:07;66.38;;;36.30;;
2061;SDS011;11070;51.336;12.340;2024-03-07T05:42:33;64.53;;;36.50;;
2061;SDS011;11070;51.336;12.340;2024-03-07T05:44:59;61.57;;;35.50;;
2061;SDS011;11070;51.336;12.340;2024-03-07T05:47:24;60.10;;;34.63;;
2061;SDS011;11070;51.336;12.340;2024-03-07T05:49:51;61.00;;;34.65;;
2061;SDS011;11070;51.336;12.340;2024-03-07T05:52:16;56.60;;;32.90;;
2061;SDS011;11070;51.336;12.340;2024-03-07T05:54:42;53.10;;;32.20;;
2061;SDS011;11070;51.336;12.340;2024-03-07T05:57:08;54.83;;;33.42;;
2061;SDS011;11070;51.336;12.340;2024-03-07T05:59:35;64.53;;;34.05;;
2061;SDS011;11070;51.336;12.340;2024-03-07T06:02:01;52.67;;;32.77;;
2061;SDS011;11070;51.336;12.340;2024-03-07T06:04:27;54.07;;;32.73;;
2061;SDS011;11070;51.336;12.340;2024-03-07T06:06:52;56.40;;;32.63;;
2061;SDS011;11070;51.336;12.340;2024-03-07T06:09:18;56.50;;;32.42;;
2061;SDS011;11070;51.336;12.340;2024-03-07T06:11:48;54.20;;;32.25;;
2061;SDS011;11070;51.336;12.340;2024-03-07T06:14:14;62.15;;;35.47;;
2061;SDS011;11070;51.336;12.340;2024-03-07T06:16:41;56.33;;;33.95;;
2061;SDS011;11070;51.336;12.340;2024-03-07T06:19:07;60.13;;;34.83;;
2061;SDS011;11070;51.336;12.340;2024-03-07T06:21:33;59.25;;;34.40;;
2061;SDS011;11070;51.336;12.340;2024-03-07T06:24:01;58.78;;;33.28;;
2061;SDS011;11070;51.336;12.340;2024-03-07T06:26:31;55.00;;;33.25;;
2061;SDS011;11070;51.336;12.340;2024-03-07T06:29:21;59.33;;;33.42;;
2061;SDS011;11070;51.336;12.340;2024-03-07T06:31:46;52.07;;;30.83;;
2061;SDS011;11070;51.336;12.340;2024-03-07T06:34:12;60.20;;;33.83;;
2061;SDS011;11070;51.336;12.340;2024-03-07T06:36:38;57.90;;;33.07;;
2061;SDS011;11070;51.336;12.340;2024-03-07T06:39:05;51.75;;;33.03;;
2061;SDS011;11070;51.336;12.340;2024-03-07T06:41:32;51.13;;;30.73;;
2061;SDS011;11070;51.336;12.340;2024-03-07T06:43:59;47.63;;;29.85;;
2061;SDS011;11070;51.336;12.340;2024-03-07T06:46:25;48.85;;;29.33;;
2061;SDS011;11070;51.336;12.340;2024-03-07T06:48:50;42.73;;;28.40;;
2061;SDS011;11070;51.336;12.340;2024-03-07T06:51:16;46.10;;;28.60;;
2061;SDS011;11070;51.336;12.340;2024-03-07T06:53:43;52.42;;;30.83;;
2061;SDS011;11070;51.336;12.340;2024-03-07T06:56:10;45.42;;;30.52;;
2061;SDS011;11070;51.336;12.340;2024-03-07T06:58:37;50.08;;;29.63;;
2061;SDS011;11070;51.336;12.340;2024-03-07T07:01:03;45.83;;;29.53;;
2061;SDS011;11070;51.336;12.340;2024-03-07T07:03:32;43.85;;;27.70;;
2061;SDS011;11070;51.336;12.340;2024-03-07T07:05:58;42.10;;;27.67;;
2061;SDS011;11070;51.336;12.340;2024-03-07T07:08:23;41.37;;;27.43;;
2061;SDS011;11070;51.336;12.340;2024-03-07T07:10:49;46.37;;;27.40;;
2061;SDS011;11070;51.336;12.340;2024-03-07T07:13:15;38.13;;;24.10;;
2061;SDS011;11070;51.336;12.340;2024-03-07T07:15:41;42.85;;;26.17;;
2061;SDS011;11070;51.336;12.340;2024-03-07T07:18:08;41.70;;;26.17;;
2061;SDS011;11070;51.336;12.340;2024-03-07T07:20:35;37.20;;;25.40;;
2061;SDS011;11070;51.336;12.340;2024-03-07T07:23:01;41.17;;;24.65;;
2061;SDS011;11070;51.336;12.340;2024-03-07T07:25:28;42.55;;;22.90;;
2061;SDS011;11070;51.336;12.340;2024-03-07T07:27:54;38.50;;;26.10;;
2061;SDS011;11070;51.336;12.340;2024-03-07T07:30:21;39.20;;;25.33;;
2061;SDS011;11070;51.336;12.340;2024-03-07T07:32:48;30.80;;;22.08;;
2061;SDS011;11070;51.336;12.340;2024-03-07T07:35:15;33.53;;;23.55;;
2061;SDS011;11070;51.336;12.340;2024-03-07T07:37:42;32.25;;;22.02;;
2061;SDS011;11070;51.336;12.340;2024-03-07T07:40:13;29.77;;;21.83;;
2061;SDS011;11070;51.336;12.340;2024-03-07T07:42:43;30.58;;;21.60;;
2061;SDS011;11070;51.336;12.340;2024-03-07T07:45:11;27.98;;;20.55;;
2061;SDS011;11070;51.336;12.340;2024-03-07T07:47:41;26.92;;;19.75;;
2061;SDS011;11070;51.336;12.340;2024-03-07T07:50:12;26.25;;;19.20;;
2061;SDS011;11070;51.336;12.340;2024-03-07T07:52:55;26.02;;;18.60;;
2061;SDS011;11070;51.336;12.340;2024-03-07T07:55:23;25.17;;;18.48;;
2061;SDS011;11070;51.336;12.340;2024-03-07T07:57:53;23.20;;;16.40;;
2061;SDS011;11070;51.336;12.340;2024-03-07T08:00:19;19.83;;;15.40;;
2061;SDS011;11070;51.336;12.340;2024-03-07T08:02:53;21.52;;;16.45;;
2061;SDS011;11070;51.336;12.340;2024-03-07T08:05:23;21.30;;;15.57;;
2061;SDS011;11070;51.336;12.340;2024-03-07T08:07:53;18.63;;;14.57;;
2061;SDS011;11070;51.336;12.340;2024-03-07T08:10:20;20.98;;;15.05;;
2061;SDS011;11070;51.336;12.340;2024-03-07T08:12:48;19.77;;;14.80;;
2061;SDS011;11070;51.336;12.340;2024-03-07T08:15:14;18.35;;;14.85;;
2061;SDS011;11070;51.336;12.340;2024-03-07T08:17:41;18.75;;;14.25;;
2061;SDS011;11070;51.336;12.340;2024-03-07T08:20:10;21.38;;;14.95;;
2061;SDS011;11070;51.336;12.340;2024-03-07T08:22:40;19.52;;;15.00;;
2061;SDS011;11070;51.336;12.340;2024-03-07T08:25:07;16.83;;;14.40;;
2061;SDS011;11070;51.336;12.340;2024-03-07T08:27:41;17.58;;;13.00;;
2061;SDS011;11070;51.336;12.340;2024-03-07T08:30:08;21.80;;;14.20;;
2061;SDS011;11070;51.336;12.340;2024-03-07T08:32:48;24.73;;;16.20;;
2061;SDS011;11070;51.336;12.340;2024-03-07T08:35:16;20.95;;;16.15;;
2061;SDS011;11070;51.336;12.340;2024-03-07T08:37:43;21.60;;;15.13;;
2061;SDS011;11070;51.336;12.340;2024-03-07T08:40:10;22.10;;;16.45;;
2061;SDS011;11070;51.336;12.340;2024-03-07T08:42:38;21.23;;;15.23;;
2061;SDS011;11070;51.336;12.340;2024-03-07T08:45:06;22.85;;;16.10;;
2061;SDS011;11070;51.336;12.340;2024-03-07T08:47:35;19.10;;;14.90;;
2061;SDS011;11070;51.336;12.340;2024-03-07T08:50:02;18.88;;;15.27;;
2061;SDS011;11070;51.336;12.340;2024-03-07T08:52:37;19.15;;;13.95;;
2061;SDS011;11070;51.336;12.340;2024-03-07T08:55:03;20.55;;;14.85;;
2061;SDS011;11070;51.336;12.340;2024-03-07T08:57:30;22.25;;;14.82;;
2061;SDS011;11070;51.336;12.340;2024-03-07T08:59:56;16.27;;;12.45;;
2061;SDS011;11070;51.336;12.340;2024-03-07T09:02:22;16.90;;;12.55;;
2061;SDS011;11070;51.336;12.340;2024-03-07T09:04:48;15.75;;;13.18;;
2061;SDS011;11070;51.336;12.340;2024-03-07T09:07:14;17.05;;;12.82;;
2061;SDS011;11070;51.336;12.340;2024-03-07T09:09:40;18.37;;;13.40;;
2061;SDS011;11070;51.336;12.340;2024-03-07T09:12:08;16.92;;;13.35;;
2061;SDS011;11070;51.336;12.340;2024-03-07T09:14:34;14.95;;;12.65;;
2061;SDS011;11070;51.336;12.340;2024-03-07T09:17:01;16.50;;;13.55;;
2061;SDS011;11070;51.336;12.340;2024-03-07T09:19:27;18.52;;;13.10;;
2061;SDS011;11070;51.336;12.340;2024-03-07T09:21:53;16.55;;;13.25;;
2061;SDS011;11070;51.336;12.340;2024-03-07T09:24:19;15.85;;;12.27;;
2061;SDS011;11070;51.336;12.340;2024-03-07T09:26:51;16.95;;;13.65;;
2061;SDS011;11070;51.336;12.340;2024-03-07T09:29:18;15.20;;;12.05;;
2061;SDS011;11070;51.336;12.340;2024-03-07T09:31:53;16.83;;;12.95;;
2061;SDS011;11070;51.336;12.340;2024-03-07T09:34:22;17.02;;;12.85;;
2061;SDS011;11070;51.336;12.340;2024-03-07T09:36:50;19.75;;;12.43;;
2061;SDS011;11070;51.336;12.340;2024-03-07T09:39:16;15.30;;;11.20;;
2061;SDS011;11070;51.336;12.340;2024-03-07T09:41:42;17.63;;;13.70;;
2061;SDS011;11070;51.336;12.340;2024-03-07T09:44:15;16.93;;;12.53;;
2061;SDS011;11070;51.336;12.340;2024-03-07T09:46:47;17.05;;;12.75;;
2061;SDS011;11070;51.336;12.340;2024-03-07T09:49:14;19.27;;;12.35;;
2061;SDS011;11070;51.336;12.340;2024-03-07T09:51:40;17.38;;;12.35;;
2061;SDS011;11070;51.336;12.340;2024-03-07T09:54:07;16.25;;;12.45;;
2061;SDS011;11070;51.336;12.340;2024-03-07T09:56:33;19.40;;;12.38;;
2061;SDS011;11070;51.336;12.340;2024-03-07T09:59:05;15.85;;;11.82;;
2061;SDS011;11070;51.336;12.340;2024-03-07T10:01:36;17.20;;;11.98;;
2061;SDS011;11070;51.336;12.340;2024-03-07T10:04:04;19.05;;;11.95;;
2061;SDS011;11070;51.336;12.340;2024-03-07T10:06:37;16.33;;;12.02;;
2061;SDS011;11070;51.336;12.340;2024-03-07T10:09:04;15.60;;;11.85;;
2061;SDS011;11070;51.336;12.340;2024-03-07T10:11:32;17.58;;;13.35;;
2061;SDS011;11070;51.336;12.340;2024-03-07T10:13:59;17.85;;;13.23;;
2061;SDS011;11070;51.336;12.340;2024-03-07T10:16:24;20.20;;;13.30;;
2061;SDS011;11070;51.336;12.340;2024-03-07T10:18:50;16.90;;;12.80;;
2061;SDS011;11070;51.336;12.340;2024-03-07T10:21:22;18.17;;;13.93;;
2061;SDS011;11070;51.336;12.340;2024-03-07T10:23:49;18.45;;;14.30;;
2061;SDS011;11070;51.336;12.340;2024-03-07T10:26:16;18.98;;;14.88;;
2061;SDS011;11070;51.336;12.340;2024-03-07T10:28:42;19.43;;;14.37;;
2061;SDS011;11070;51.336;12.340;2024-03-07T10:31:08;17.83;;;13.37;;
2061;SDS011;11070;51.336;12.340;2024-03-07T10:33:39;19.58;;;13.70;;
2061;SDS011;11070;51.336;12.340;2024-03-07T10:36:05;14.38;;;12.45;;
2061;SDS011;11070;51.336;12.340;2024-03-07T10:38:35;16.45;;;12.70;;
2061;SDS011;11070;51.336;12.340;2024-03-07T10:41:02;19.23;;;13.75;;
2061;SDS011;11070;51.336;12.340;2024-03-07T10:43:30;17.52;;;13.45;;
2061;SDS011;11070;51.336;12.340;2024-03-07T10:46:03;15.95;;;13.45;;
2061;SDS011;11070;51.336;12.340;2024-03-07T10:48:31;18.75;;;13.88;;
2061;SDS011;11070;51.336;12.340;2024-03-07T10:57:15;17.80;;;14.27;;
2061;SDS011;11070;51.336;12.340;2024-03-07T10:59:41;17.17;;;14.32;;
2061;SDS011;11070;51.336;12.340;2024-03-07T11:04:58;17.65;;;14.45;;
2061;SDS011;11070;51.336;12.340;2024-03-07T11:07:24;17.42;;;14.52;;
2061;SDS011;11070;51.336;12.340;2024-03-07T11:09:52;16.20;;;14.02;;
2061;SDS011;11070;51.336;12.340;2024-03-07T11:12:23;18.40;;;15.05;;
2061;SDS011;11070;51.336;12.340;2024-03-07T11:14:52;18.85;;;14.70;;
2061;SDS011;11070;51.336;12.340;2024-03-07T11:17:20;19.00;;;15.10;;
2061;SDS011;11070;51.336;12.340;2024-03-07T11:19:47;19.98;;;14.52;;
2061;SDS011;11070;51.336;12.340;2024-03-07T11:22:30;19.23;;;14.85;;
2061;SDS011;11070;51.336;12.340;2024-03-07T11:25:04;19.60;;;15.75;;
2061;SDS011;11070;51.336;12.340;2024-03-07T11:27:36;19.27;;;14.25;;
2061;SDS011;11070;51.336;12.340;2024-03-07T11:30:04;17.23;;;13.85;;
2061;SDS011;11070;51.336;12.340;2024-03-07T11:32:34;20.35;;;14.85;;
2061;SDS011;11070;51.336;12.340;2024-03-07T11:35:03;18.17;;;15.30;;
2061;SDS011;11070;51.336;12.340;2024-03-07T11:37:41;18.73;;;15.38;;
2061;SDS011;11070;51.336;12.340;2024-03-07T11:42:50;19.88;;;16.05;;
2061;SDS011;11070;51.336;12.340;2024-03-07T11:45:21;20.80;;;16.85;;
2061;SDS011;11070;51.336;12.340;2024-03-07T11:47:56;20.88;;;15.40;;
2061;SDS011;11070;51.336;12.340;2024-03-07T11:50:28;21.35;;;16.80;;
2061;SDS011;11070;51.336;12.340;2024-03-07T11:53:00;20.50;;;15.38;;
2061;SDS011;11070;51.336;12.340;2024-03-07T11:55:26;20.40;;;16.70;;
2061;SDS011;11070;51.336;12.340;2024-03-07T11:57:58;22.90;;;17.42;;
2061;SDS011;11070;51.336;12.340;2024-03-07T12:00:26;21.10;;;16.90;;
2061;SDS011;11070;51.336;12.340;2024-03-07T12:02:56;21.95;;;17.15;;
2061;SDS011;11070;51.336;12.340;2024-03-07T12:05:22;23.10;;;16.77;;
2061;SDS011;11070;51.336;12.340;2024-03-07T12:07:47;24.23;;;18.63;;
2061;SDS011;11070;51.336;12.340;2024-03-07T12:10:15;21.98;;;17.67;;
2061;SDS011;11070;51.336;12.340;2024-03-07T12:12:41;23.60;;;18.33;;
2061;SDS011;11070;51.336;12.340;2024-03-07T12:15:08;22.85;;;18.08;;
2061;SDS011;11070;51.336;12.340;2024-03-07T12:17:41;23.90;;;17.45;;
2061;SDS011;11070;51.336;12.340;2024-03-07T12:20:08;22.35;;;17.63;;
2061;SDS011;11070;51.336;12.340;2024-03-07T12:22:50;22.58;;;16.98;;
2061;SDS011;11070;51.336;12.340;2024-03-07T12:25:18;23.45;;;17.52;;
2061;SDS011;11070;51.336;12.340;2024-03-07T12:27:47;24.70;;;18.85;;
2061;SDS011;11070;51.336;12.340;2024-03-07T12:30:25;28.15;;;19.27;;
2061;SDS011;11070;51.336;12.340;2024-03-07T12:32:52;26.73;;;19.20;;
2061;SDS011;11070;51.336;12.340;2024-03-07T12:35:18;23.73;;;18.00;;
2061;SDS011;11070;51.336;12.340;2024-03-07T12:37:44;27.88;;;19.55;;
2061;SDS011;11070;51.336;12.340;2024-03-07T12:40:11;24.90;;;19.27;;
2061;SDS011;11070;51.336;12.340;2024-03-07T12:42:45;29.13;;;19.15;;
2061;SDS011;11070;51.336;12.340;2024-03-07T12:45:19;25.33;;;18.35;;
2061;SDS011;11070;51.336;12.340;2024-03-07T12:47:47;25.08;;;19.88;;
2061;SDS011;11070;51.336;12.340;2024-03-07T12:50:18;24.95;;;19.35;;
2061;SDS011;11070;51.336;12.340;2024-03-07T12:52:47;23.80;;;19.20;;
2061;SDS011;11070;51.336;12.340;2024-03-07T12:55:17;22.20;;;18.52;;
2061;SDS011;11070;51.336;12.340;2024-03-07T12:57:48;22.38;;;16.98;;
2061;SDS011;11070;51.336;12.340;2024-03-07T13:00:17;19.40;;;17.02;;
2061;SDS011;11070;51.336;12.340;2024-03-07T13:02:46;21.02;;;17.80;;
2061;SDS011;11070;51.336;12.340;2024-03-07T13:05:13;22.27;;;18.33;;
2061;SDS011;11070;51.336;12.340;2024-03-07T13:07:44;19.13;;;16.83;;
2061;SDS011;11070;51.336;12.340;2024-03-07T13:10:12;18.55;;;16.27;;
2061;SDS011;11070;51.336;12.340;2024-03-07T13:12:40;20.52;;;17.52;;
2061;SDS011;11070;51.336;12.340;2024-03-07T13:15:10;17.42;;;15.50;;
2061;SDS011;11070;51.336;12.340;2024-03-07T13:17:37;17.48;;;15.57;;
2061;SDS011;11070;51.336;12.340;2024-03-07T13:20:03;20.60;;;16.30;;
2061;SDS011;11070;51.336;12.340;2024-03-07T13:22:36;21.77;;;17.55;;
2061;SDS011;11070;51.336;12.340;2024-03-07T13:25:09;23.85;;;17.00;;
2061;SDS011;11070;51.336;12.340;2024-03-07T13:27:44;22.67;;;17.90;;
2061;SDS011;11070;51.336;12.340;2024-03-07T13:30:24;23.67;;;17.95;;
2061;SDS011;11070;51.336;12.340;2024-03-07T13:32:56;22.48;;;18.15;;
2061;SDS011;11070;51.336;12.340;2024-03-07T13:35:23;21.75;;;17.58;;
2061;SDS011;11070;51.336;12.340;2024-03-07T13:37:53;20.92;;;16.60;;
2061;SDS011;11070;51.336;12.340;2024-03-07T13:40:20;26.30;;;19.20;;
2061;SDS011;11070;51.336;12.340;2024-03-07T13:45:28;24.08;;;19.65;;
2061;SDS011;11070;51.336;12.340;2024-03-07T13:48:04;23.48;;;18.25;;
2061;SDS011;11070;51.336;12.340;2024-03-07T13:50:30;23.80;;;17.13;;
2061;SDS011;11070;51.336;12.340;2024-03-07T13:52:57;22.40;;;18.10;;
2061;SDS011;11070;51.336;12.340;2024-03-07T13:55:55;24.00;;;18.17;;
2061;SDS011;11070;51.336;12.340;2024-03-07T14:09:36;23.67;;;19.05;;
2061;SDS011;11070;51.336;12.340;2024-03-07T14:21:31;23.38;;;18.20;;
2061;SDS011;11070;51.336;12.340;2024-03-07T14:24:31;22.42;;;17.30;;
2061;SDS011;11070;51.336;12.340;2024-03-07T14:27:35;22.08;;;17.25;;
2061;SDS011;11070;51.336;12.340;2024-03-07T14:30:18;24.15;;;18.45;;
2061;SDS011;11070;51.336;12.340;2024-03-07T14:33:05;23.08;;;17.00;;
2061;SDS011;11070;51.336;12.340;2024-03-07T14:38:49;21.58;;;17.33;;
2061;SDS011;11070;51.336;12.340;2024-03-07T14:41:20;20.65;;;17.55;;
2061;SDS011;11070;51.336;12.340;2024-03-07T14:44:05;22.02;;;17.33;;
2061;SDS011;11070;51.336;12.340;2024-03-07T14:46:32;23.52;;;17.40;;
2061;SDS011;11070;51.336;12.340;2024-03-07T14:48:59;20.30;;;16.83;;
2061;SDS011;11070;51.336;12.340;2024-03-07T14:51:25;21.23;;;17.55;;
2061;SDS011;11070;51.336;12.340;2024-03-07T14:53:51;23.97;;;17.63;;
2061;SDS011;11070;51.336;12.340;2024-03-07T14:56:17;20.30;;;16.70;;
2061;SDS011;11070;51.336;12.340;2024-03-07T14:58:45;19.73;;;16.73;;
2061;SDS011;11070;51.336;12.340;2024-03-07T15:01:11;23.88;;;18.13;;
2061;SDS011;11070;51.336;12.340;2024-03-07T15:03:38;20.65;;;17.30;;
2061;SDS011;11070;51.336;12.340;2024-03-07T15:06:06;21.00;;;17.27;;